sensor_id;sensor_type;location;lat;lon;timestamp;temperature;humidity
37702;DHT22;23548;51.196;6.838;2024-02-16T00:00:17;12.90;99.90
37702;DHT22;23548;51.196;6.838;2024-02-16T00:02:44;12.80;99.90
37702;DHT22;23548;51.196;6.838;2024-02-16T00:05:10;12.90;99.90
37702;DHT22;23548;51.196;6.838;2024-02-16T00:07:39;12.90;99.90
37702;DHT22;23548;51.196;6.838;2024-02-16T00:10:07;12.80;99.90
37702;DHT22;23548;51.196;6.838;2024-02-16T00:12:34;12.80;99.90
37702;DHT22;23548;51.196;6.838;2024-02-16T00:15:00;12.80;99.90
37702;DHT22;23548;51.196;6.838;2024-02-16T00:17:26;12.90;99.90
37702;DHT22;23548;51.196;6.838;2024-02-16T00:19:56;13.00;99.90
37702;DHT22;23548;51.196;6.838;2024-02-16T00:22:23;12.90;99.90
37702;DHT22;23548;51.196;6.838;2024-02-16T00:24:48;12.90;99.90
37702;DHT22;23548;51.196;6.838;2024-02-16T00:27:15;12.90;99.90
37702;DHT22;23548;51.196;6.838;2024-02-16T00:29:40;13.00;99.90
37702;DHT22;23548;51.196;6.838;2024-02-16T00:32:07;13.10;99.90
37702;DHT22;23548;51.196;6.838;2024-02-16T00:34:33;13.20;99.90
37702;DHT22;23548;51.196;6.838;2024-02-16T00:37:00;13.20;99.90
37702;DHT22;23548;51.196;6.838;2024-02-16T00:39:26;13.20;99.90
37702;DHT22;23548;51.196;6.838;2024-02-16T00:41:51;13.20;99.90
37702;DHT22;23548;51.196;6.838;2024-02-16T00:44:18;13.10;99.90
37702;DHT22;23548;51.196;6.838;2024-02-16T00:46:46;13.00;99.90
37702;DHT22;23548;51.196;6.838;2024-02-16T00:49:12;13.00;99.90
37702;DHT22;23548;51.196;6.838;2024-02-16T00:54:13;13.20;99.90
37702;DHT22;23548;51.196;6.838;2024-02-16T00:56:39;13.10;99.90
37702;DHT22;23548;51.196;6.838;2024-02-16T00:59:05;13.30;99.90
37702;DHT22;23548;51.196;6.838;2024-02-16T01:01:31;13.20;99.90
37702;DHT22;23548;51.196;6.838;2024-02-16T01:03:56;13.30;99.90
37702;DHT22;23548;51.196;6.838;2024-02-16T01:06:22;13.30;99.90
37702;DHT22;23548;51.196;6.838;2024-02-16T01:08:48;13.20;99.90
37702;DHT22;23548;51.196;6.838;2024-02-16T01:11:14;13.10;99.90
37702;DHT22;23548;51.196;6.838;2024-02-16T01:13:40;13.10;99.90
37702;DHT22;23548;51.196;6.838;2024-02-16T01:16:06;13.10;99.90
37702;DHT22;23548;51.196;6.838;2024-02-16T01:18:32;13.10;99.90
37702;DHT22;23548;51.196;6.838;2024-02-16T01:20:58;13.10;99.90
37702;DHT22;23548;51.196;6.838;2024-02-16T01:23:24;13.20;99.90
37702;DHT22;23548;51.196;6.838;2024-02-16T01:25:50;13.20;99.90
37702;DHT22;23548;51.196;6.838;2024-02-16T01:28:16;13.30;99.90
37702;DHT22;23548;51.196;6.838;2024-02-16T01:30:42;13.30;99.90
37702;DHT22;23548;51.196;6.838;2024-02-16T01:33:08;13.30;99.90
37702;DHT22;23548;51.196;6.838;2024-02-16T01:35:34;13.30;99.90
37702;DHT22;23548;51.196;6.838;2024-02-16T01:38:00;13.30;99.90
37702;DHT22;23548;51.196;6.838;2024-02-16T01:40:29;13.40;99.90
37702;DHT22;23548;51.196;6.838;2024-02-16T01:42:55;13.40;99.90
37702;DHT22;23548;51.196;6.838;2024-02-16T01:45:21;13.30;99.90
37702;DHT22;23548;51.196;6.838;2024-02-16T01:47:51;13.20;99.90
37702;DHT22;23548;51.196;6.838;2024-02-16T01:50:18;13.20;99.90
37702;DHT22;23548;51.196;6.838;2024-02-16T01:52:45;13.30;99.90
37702;DHT22;23548;51.196;6.838;2024-02-16T01:55:12;13.30;99.90
37702;DHT22;23548;51.196;6.838;2024-02-16T01:57:39;13.30;99.90
37702;DHT22;23548;51.196;6.838;2024-02-16T02:00:06;13.30;99.90
37702;DHT22;23548;51.196;6.838;2024-02-16T02:02:35;13.30;99.90
37702;DHT22;23548;51.196;6.838;2024-02-16T02:05:02;13.20;99.90
37702;DHT22;23548;51.196;6.838;2024-02-16T02:07:28;13.20;99.90
37702;DHT22;23548;51.196;6.838;2024-02-16T02:09:54;13.20;99.90
37702;DHT22;23548;51.196;6.838;2024-02-16T02:12:20;13.30;99.90
37702;DHT22;23548;51.196;6.838;2024-02-16T02:14:46;13.40;99.90
37702;DHT22;23548;51.196;6.838;2024-02-16T02:17:12;13.40;99.90
37702;DHT22;23548;51.196;6.838;2024-02-16T02:19:38;13.40;99.90
37702;DHT22;23548;51.196;6.838;2024-02-16T02:22:04;13.40;99.90
37702;DHT22;23548;51.196;6.838;2024-02-16T02:24:30;13.50;99.90
37702;DHT22;23548;51.196;6.838;2024-02-16T02:26:56;13.50;99.90
37702;DHT22;23548;51.196;6.838;2024-02-16T02:29:23;13.50;99.90
37702;DHT22;23548;51.196;6.838;2024-02-16T02:31:48;13.30;99.90
37702;DHT22;23548;51.196;6.838;2024-02-16T02:34:14;13.30;99.90
37702;DHT22;23548;51.196;6.838;2024-02-16T02:36:40;13.20;99.90
37702;DHT22;23548;51.196;6.838;2024-02-16T02:39:06;13.10;99.90
37702;DHT22;23548;51.196;6.838;2024-02-16T02:41:32;13.00;99.90
37702;DHT22;23548;51.196;6.838;2024-02-16T02:43:58;12.90;99.90
37702;DHT22;23548;51.196;6.838;2024-02-16T02:46:24;12.80;99.90
37702;DHT22;23548;51.196;6.838;2024-02-16T02:48:50;12.70;99.90
37702;DHT22;23548;51.196;6.838;2024-02-16T02:51:17;12.60;99.90
37702;DHT22;23548;51.196;6.838;2024-02-16T02:53:42;12.70;99.90
37702;DHT22;23548;51.196;6.838;2024-02-16T02:56:08;12.80;99.90
37702;DHT22;23548;51.196;6.838;2024-02-16T02:59:08;12.90;99.90
37702;DHT22;23548;51.196;6.838;2024-02-16T03:01:36;12.90;99.90
37702;DHT22;23548;51.196;6.838;2024-02-16T03:04:02;13.00;99.90
37702;DHT22;23548;51.196;6.838;2024-02-16T03:06:28;13.00;99.90
37702;DHT22;23548;51.196;6.838;2024-02-16T03:08:54;13.10;99.90
37702;DHT22;23548;51.196;6.838;2024-02-16T03:11:20;13.10;99.90
37702;DHT22;23548;51.196;6.838;2024-02-16T03:13:46;13.10;99.90
37702;DHT22;23548;51.196;6.838;2024-02-16T03:16:11;13.10;99.90
37702;DHT22;23548;51.196;6.838;2024-02-16T03:18:37;13.00;99.90
37702;DHT22;23548;51.196;6.838;2024-02-16T03:21:03;13.00;99.90
37702;DHT22;23548;51.196;6.838;2024-02-16T03:23:29;13.00;99.90
37702;DHT22;23548;51.196;6.838;2024-02-16T03:25:55;12.90;99.90
37702;DHT22;23548;51.196;6.838;2024-02-16T03:28:21;12.90;99.90
37702;DHT22;23548;51.196;6.838;2024-02-16T03:30:47;12.90;99.90
37702;DHT22;23548;51.196;6.838;2024-02-16T03:33:13;12.90;99.90
37702;DHT22;23548;51.196;6.838;2024-02-16T03:35:39;12.90;99.90
37702;DHT22;23548;51.196;6.838;2024-02-16T03:38:05;12.90;99.90
37702;DHT22;23548;51.196;6.838;2024-02-16T03:40:31;12.80;99.90
37702;DHT22;23548;51.196;6.838;2024-02-16T03:42:58;12.80;99.90
37702;DHT22;23548;51.196;6.838;2024-02-16T03:45:24;12.80;99.90
37702;DHT22;23548;51.196;6.838;2024-02-16T03:47:50;12.90;99.90
37702;DHT22;23548;51.196;6.838;2024-02-16T03:50:18;12.90;99.90
37702;DHT22;23548;51.196;6.838;2024-02-16T03:52:44;13.00;99.90
37702;DHT22;23548;51.196;6.838;2024-02-16T03:55:10;12.90;99.90
37702;DHT22;23548;51.196;6.838;2024-02-16T03:57:37;13.00;99.90
37702;DHT22;23548;51.196;6.838;2024-02-16T04:00:03;13.00;99.90
37702;DHT22;23548;51.196;6.838;2024-02-16T04:02:32;13.00;99.90
37702;DHT22;23548;51.196;6.838;2024-02-16T04:04:57;13.10;99.90
37702;DHT22;23548;51.196;6.838;2024-02-16T04:07:23;13.10;99.90
37702;DHT22;23548;51.196;6.838;2024-02-16T04:09:49;13.10;99.90
37702;DHT22;23548;51.196;6.838;2024-02-16T04:12:15;13.10;99.90
37702;DHT22;23548;51.196;6.838;2024-02-16T04:14:41;13.20;99.90
37702;DHT22;23548;51.196;6.838;2024-02-16T04:17:07;13.10;99.90
37702;DHT22;23548;51.196;6.838;2024-02-16T04:19:33;13.10;99.90
37702;DHT22;23548;51.196;6.838;2024-02-16T04:21:59;13.00;99.90
37702;DHT22;23548;51.196;6.838;2024-02-16T04:24:24;13.00;99.90
37702;DHT22;23548;51.196;6.838;2024-02-16T04:26:50;13.00;99.90
37702;DHT22;23548;51.196;6.838;2024-02-16T04:29:16;13.10;99.90
37702;DHT22;23548;51.196;6.838;2024-02-16T04:31:42;13.10;99.90
37702;DHT22;23548;51.196;6.838;2024-02-16T04:34:10;13.00;99.90
37702;DHT22;23548;51.196;6.838;2024-02-16T04:36:36;13.10;99.90
37702;DHT22;23548;51.196;6.838;2024-02-16T04:39:02;13.10;99.90
37702;DHT22;23548;51.196;6.838;2024-02-16T04:41:27;13.00;99.90
37702;DHT22;23548;51.196;6.838;2024-02-16T04:43:53;13.10;99.90
37702;DHT22;23548;51.196;6.838;2024-02-16T04:46:19;13.00;99.90
37702;DHT22;23548;51.196;6.838;2024-02-16T04:48:44;12.90;99.90
37702;DHT22;23548;51.196;6.838;2024-02-16T04:51:11;12.70;99.90
37702;DHT22;23548;51.196;6.838;2024-02-16T04:53:37;12.70;99.90
37702;DHT22;23548;51.196;6.838;2024-02-16T04:56:03;12.70;99.90
37702;DHT22;23548;51.196;6.838;2024-02-16T04:58:30;12.60;99.90
37702;DHT22;23548;51.196;6.838;2024-02-16T05:00:56;12.60;99.90
37702;DHT22;23548;51.196;6.838;2024-02-16T05:03:22;12.60;99.90
37702;DHT22;23548;51.196;6.838;2024-02-16T05:05:48;12.70;99.90
37702;DHT22;23548;51.196;6.838;2024-02-16T05:08:14;12.70;99.90
37702;DHT22;23548;51.196;6.838;2024-02-16T05:10:40;12.70;99.90
37702;DHT22;23548;51.196;6.838;2024-02-16T05:13:06;12.80;99.90
37702;DHT22;23548;51.196;6.838;2024-02-16T05:15:32;12.90;99.90
37702;DHT22;23548;51.196;6.838;2024-02-16T05:17:58;12.90;99.90
37702;DHT22;23548;51.196;6.838;2024-02-16T05:20:23;12.90;99.90
37702;DHT22;23548;51.196;6.838;2024-02-16T05:22:49;12.80;99.90
37702;DHT22;23548;51.196;6.838;2024-02-16T05:25:18;12.80;99.90
37702;DHT22;23548;51.196;6.838;2024-02-16T05:27:45;12.70;99.90
37702;DHT22;23548;51.196;6.838;2024-02-16T05:30:12;12.70;99.90
37702;DHT22;23548;51.196;6.838;2024-02-16T05:32:42;12.70;99.90
37702;DHT22;23548;51.196;6.838;2024-02-16T05:35:08;12.60;99.90
37702;DHT22;23548;51.196;6.838;2024-02-16T05:37:39;12.60;99.90
37702;DHT22;23548;51.196;6.838;2024-02-16T05:40:08;12.50;99.90
37702;DHT22;23548;51.196;6.838;2024-02-16T05:42:46;12.50;99.90
37702;DHT22;23548;51.196;6.838;2024-02-16T05:45:11;12.50;99.90
37702;DHT22;23548;51.196;6.838;2024-02-16T05:47:37;12.40;99.90
37702;DHT22;23548;51.196;6.838;2024-02-16T05:50:04;12.40;99.90
37702;DHT22;23548;51.196;6.838;2024-02-16T05:52:30;12.40;99.90
37702;DHT22;23548;51.196;6.838;2024-02-16T05:54:56;12.40;99.90
37702;DHT22;23548;51.196;6.838;2024-02-16T05:57:22;12.40;99.90
37702;DHT22;23548;51.196;6.838;2024-02-16T05:59:49;12.40;99.90
37702;DHT22;23548;51.196;6.838;2024-02-16T06:02:15;12.40;99.90
37702;DHT22;23548;51.196;6.838;2024-02-16T06:04:41;12.50;99.90
37702;DHT22;23548;51.196;6.838;2024-02-16T06:07:07;12.40;99.90
37702;DHT22;23548;51.196;6.838;2024-02-16T06:09:33;12.60;99.90
37702;DHT22;23548;51.196;6.838;2024-02-16T06:12:04;12.60;99.90
37702;DHT22;23548;51.196;6.838;2024-02-16T06:14:33;12.70;99.90
37702;DHT22;23548;51.196;6.838;2024-02-16T06:16:59;12.70;99.90
37702;DHT22;23548;51.196;6.838;2024-02-16T06:19:26;12.70;99.90
37702;DHT22;23548;51.196;6.838;2024-02-16T06:21:53;12.70;99.90
37702;DHT22;23548;51.196;6.838;2024-02-16T06:24:21;12.70;99.90
37702;DHT22;23548;51.196;6.838;2024-02-16T06:26:47;12.70;99.90
37702;DHT22;23548;51.196;6.838;2024-02-16T06:29:13;12.70;99.90
37702;DHT22;23548;51.196;6.838;2024-02-16T06:31:39;12.80;99.90
37702;DHT22;23548;51.196;6.838;2024-02-16T06:34:05;12.80;99.90
37702;DHT22;23548;51.196;6.838;2024-02-16T06:36:30;12.80;99.90
37702;DHT22;23548;51.196;6.838;2024-02-16T06:38:56;12.80;99.90
37702;DHT22;23548;51.196;6.838;2024-02-16T06:41:22;12.80;99.90
37702;DHT22;23548;51.196;6.838;2024-02-16T06:43:47;12.70;99.90
37702;DHT22;23548;51.196;6.838;2024-02-16T06:46:13;12.70;99.90
37702;DHT22;23548;51.196;6.838;2024-02-16T06:48:39;12.70;99.90
37702;DHT22;23548;51.196;6.838;2024-02-16T06:51:04;12.70;99.90
37702;DHT22;23548;51.196;6.838;2024-02-16T06:53:30;12.70;99.90
37702;DHT22;23548;51.196;6.838;2024-02-16T06:55:57;12.80;99.90
37702;DHT22;23548;51.196;6.838;2024-02-16T06:58:23;12.70;99.90
37702;DHT22;23548;51.196;6.838;2024-02-16T07:00:50;12.60;99.90
37702;DHT22;23548;51.196;6.838;2024-02-16T07:03:15;12.70;99.90
37702;DHT22;23548;51.196;6.838;2024-02-16T07:05:41;12.70;99.90
37702;DHT22;23548;51.196;6.838;2024-02-16T07:08:07;12.70;99.90
37702;DHT22;23548;51.196;6.838;2024-02-16T07:10:33;12.70;99.90
37702;DHT22;23548;51.196;6.838;2024-02-16T07:12:59;12.80;99.90
37702;DHT22;23548;51.196;6.838;2024-02-16T07:15:25;12.90;99.90
37702;DHT22;23548;51.196;6.838;2024-02-16T07:17:53;12.90;99.90
37702;DHT22;23548;51.196;6.838;2024-02-16T07:20:18;12.90;99.90
37702;DHT22;23548;51.196;6.838;2024-02-16T07:22:44;12.90;99.90
37702;DHT22;23548;51.196;6.838;2024-02-16T07:25:13;12.90;99.90
37702;DHT22;23548;51.196;6.838;2024-02-16T07:27:39;13.10;99.90
37702;DHT22;23548;51.196;6.838;2024-02-16T07:30:05;13.10;99.90
37702;DHT22;23548;51.196;6.838;2024-02-16T07:32:31;13.20;99.90
37702;DHT22;23548;51.196;6.838;2024-02-16T07:34:56;13.40;99.90
37702;DHT22;23548;51.196;6.838;2024-02-16T07:37:22;13.50;99.90
37702;DHT22;23548;51.196;6.838;2024-02-16T07:39:48;13.60;99.90
37702;DHT22;23548;51.196;6.838;2024-02-16T07:42:13;13.60;99.90
37702;DHT22;23548;51.196;6.838;2024-02-16T07:44:39;13.60;99.90
37702;DHT22;23548;51.196;6.838;2024-02-16T07:47:05;13.70;99.90
37702;DHT22;23548;51.196;6.838;2024-02-16T07:49:31;13.60;99.90
37702;DHT22;23548;51.196;6.838;2024-02-16T07:51:57;13.60;99.90
37702;DHT22;23548;51.196;6.838;2024-02-16T07:54:26;13.70;99.90
37702;DHT22;23548;51.196;6.838;2024-02-16T07:56:51;13.90;99.90
37702;DHT22;23548;51.196;6.838;2024-02-16T07:59:17;14.00;99.90
37702;DHT22;23548;51.196;6.838;2024-02-16T08:01:44;14.00;99.90
37702;DHT22;23548;51.196;6.838;2024-02-16T08:04:10;14.10;99.90
37702;DHT22;23548;51.196;6.838;2024-02-16T08:06:36;14.20;99.90
37702;DHT22;23548;51.196;6.838;2024-02-16T08:09:03;14.20;99.90
37702;DHT22;23548;51.196;6.838;2024-02-16T08:11:30;14.10;99.90
37702;DHT22;23548;51.196;6.838;2024-02-16T08:13:56;14.20;99.90
37702;DHT22;23548;51.196;6.838;2024-02-16T08:16:26;14.10;99.90
37702;DHT22;23548;51.196;6.838;2024-02-16T08:18:53;14.00;99.90
37702;DHT22;23548;51.196;6.838;2024-02-16T08:21:18;14.10;99.90
37702;DHT22;23548;51.196;6.838;2024-02-16T08:23:44;14.10;99.90
37702;DHT22;23548;51.196;6.838;2024-02-16T08:26:10;14.20;99.90
37702;DHT22;23548;51.196;6.838;2024-02-16T08:28:36;14.20;99.90
37702;DHT22;23548;51.196;6.838;2024-02-16T08:31:01;14.20;99.90
37702;DHT22;23548;51.196;6.838;2024-02-16T08:33:27;14.30;99.90
37702;DHT22;23548;51.196;6.838;2024-02-16T08:35:53;14.30;99.90
37702;DHT22;23548;51.196;6.838;2024-02-16T08:38:18;14.60;99.90
37702;DHT22;23548;51.196;6.838;2024-02-16T08:40:44;14.70;99.90
37702;DHT22;23548;51.196;6.838;2024-02-16T08:43:10;14.90;99.90
37702;DHT22;23548;51.196;6.838;2024-02-16T08:45:36;14.90;99.90
37702;DHT22;23548;51.196;6.838;2024-02-16T08:48:02;15.30;99.90
37702;DHT22;23548;51.196;6.838;2024-02-16T08:50:29;15.50;99.90
37702;DHT22;23548;51.196;6.838;2024-02-16T08:52:55;15.70;99.90
37702;DHT22;23548;51.196;6.838;2024-02-16T08:55:21;15.70;99.90
37702;DHT22;23548;51.196;6.838;2024-02-16T08:57:47;15.80;99.90
37702;DHT22;23548;51.196;6.838;2024-02-16T09:00:13;15.70;99.90
37702;DHT22;23548;51.196;6.838;2024-02-16T09:02:40;15.80;99.90
37702;DHT22;23548;51.196;6.838;2024-02-16T09:05:06;15.90;99.90
37702;DHT22;23548;51.196;6.838;2024-02-16T09:07:35;15.90;99.90
37702;DHT22;23548;51.196;6.838;2024-02-16T09:10:01;15.90;99.90
37702;DHT22;23548;51.196;6.838;2024-02-16T09:12:27;15.80;99.90
37702;DHT22;23548;51.196;6.838;2024-02-16T09:14:53;15.80;99.90
37702;DHT22;23548;51.196;6.838;2024-02-16T09:17:18;15.80;99.90
37702;DHT22;23548;51.196;6.838;2024-02-16T09:19:45;15.60;99.90
37702;DHT22;23548;51.196;6.838;2024-02-16T09:22:11;15.70;99.90
37702;DHT22;23548;51.196;6.838;2024-02-16T09:24:37;15.80;99.90
37702;DHT22;23548;51.196;6.838;2024-02-16T09:27:03;15.80;99.90
37702;DHT22;23548;51.196;6.838;2024-02-16T09:29:30;15.90;99.90
37702;DHT22;23548;51.196;6.838;2024-02-16T09:31:56;15.90;99.90
37702;DHT22;23548;51.196;6.838;2024-02-16T09:34:21;15.90;99.90
37702;DHT22;23548;51.196;6.838;2024-02-16T09:36:49;15.70;99.90
37702;DHT22;23548;51.196;6.838;2024-02-16T09:39:14;15.60;99.90
37702;DHT22;23548;51.196;6.838;2024-02-16T09:41:42;15.70;99.90
37702;DHT22;23548;51.196;6.838;2024-02-16T09:44:11;15.80;99.90
37702;DHT22;23548;51.196;6.838;2024-02-16T09:46:36;15.80;99.90
37702;DHT22;23548;51.196;6.838;2024-02-16T09:49:03;15.80;99.90
37702;DHT22;23548;51.196;6.838;2024-02-16T09:51:30;15.60;99.90
37702;DHT22;23548;51.196;6.838;2024-02-16T09:53:55;15.70;99.90
37702;DHT22;23548;51.196;6.838;2024-02-16T09:56:22;15.60;99.90
37702;DHT22;23548;51.196;6.838;2024-02-16T09:58:47;15.60;99.90
37702;DHT22;23548;51.196;6.838;2024-02-16T10:01:20;15.50;99.90
37702;DHT22;23548;51.196;6.838;2024-02-16T10:03:46;15.50;99.90
37702;DHT22;23548;51.196;6.838;2024-02-16T10:06:13;15.50;99.90
37702;DHT22;23548;51.196;6.838;2024-02-16T10:09:07;15.60;99.90
37702;DHT22;23548;51.196;6.838;2024-02-16T10:11:32;15.80;99.90
37702;DHT22;23548;51.196;6.838;2024-02-16T10:13:59;15.70;99.90
37702;DHT22;23548;51.196;6.838;2024-02-16T10:16:25;15.70;99.90
37702;DHT22;23548;51.196;6.838;2024-02-16T10:18:55;15.90;99.90
37702;DHT22;23548;51.196;6.838;2024-02-16T10:21:28;16.10;99.90
37702;DHT22;23548;51.196;6.838;2024-02-16T10:24:07;16.30;99.90
37702;DHT22;23548;51.196;6.838;2024-02-16T10:26:33;16.40;99.90
37702;DHT22;23548;51.196;6.838;2024-02-16T10:29:03;16.30;99.90
37702;DHT22;23548;51.196;6.838;2024-02-16T10:31:31;16.20;99.90
37702;DHT22;23548;51.196;6.838;2024-02-16T10:34:01;16.30;99.90
37702;DHT22;23548;51.196;6.838;2024-02-16T10:36:38;16.20;99.90
37702;DHT22;23548;51.196;6.838;2024-02-16T10:39:05;16.10;99.90
37702;DHT22;23548;51.196;6.838;2024-02-16T10:41:37;15.90;99.90
37702;DHT22;23548;51.196;6.838;2024-02-16T10:44:03;15.80;99.90
37702;DHT22;23548;51.196;6.838;2024-02-16T10:46:30;15.60;99.90
37702;DHT22;23548;51.196;6.838;2024-02-16T10:48:56;15.40;99.90
37702;DHT22;23548;51.196;6.838;2024-02-16T10:52:07;15.30;99.90
37702;DHT22;23548;51.196;6.838;2024-02-16T10:54:30;15.20;99.90
37702;DHT22;23548;51.196;6.838;2024-02-16T10:56:57;15.20;99.90
37702;DHT22;23548;51.196;6.838;2024-02-16T10:59:24;15.10;99.90
37702;DHT22;23548;51.196;6.838;2024-02-16T11:02:00;15.20;99.90
37702;DHT22;23548;51.196;6.838;2024-02-16T11:04:39;15.10;99.90
37702;DHT22;23548;51.196;6.838;2024-02-16T11:07:15;15.10;99.90
37702;DHT22;23548;51.196;6.838;2024-02-16T11:09:41;15.00;99.90
37702;DHT22;23548;51.196;6.838;2024-02-16T11:12:07;15.00;99.90
37702;DHT22;23548;51.196;6.838;2024-02-16T11:14:47;15.00;99.90
37702;DHT22;23548;51.196;6.838;2024-02-16T11:17:21;15.10;99.90
37702;DHT22;23548;51.196;6.838;2024-02-16T11:19:48;15.10;99.90
37702;DHT22;23548;51.196;6.838;2024-02-16T11:22:18;15.10;99.90
37702;DHT22;23548;51.196;6.838;2024-02-16T11:24:45;15.20;99.90
37702;DHT22;23548;51.196;6.838;2024-02-16T11:27:12;15.20;99.90
37702;DHT22;23548;51.196;6.838;2024-02-16T11:29:38;15.30;99.90
37702;DHT22;23548;51.196;6.838;2024-02-16T11:32:05;15.30;99.90
37702;DHT22;23548;51.196;6.838;2024-02-16T11:34:32;15.30;99.90
37702;DHT22;23548;51.196;6.838;2024-02-16T11:37:00;15.40;99.90
37702;DHT22;23548;51.196;6.838;2024-02-16T11:39:27;15.40;99.90
37702;DHT22;23548;51.196;6.838;2024-02-16T11:42:00;15.30;99.90
37702;DHT22;23548;51.196;6.838;2024-02-16T11:44:28;15.20;99.90
37702;DHT22;23548;51.196;6.838;2024-02-16T11:46:54;15.10;99.90
37702;DHT22;23548;51.196;6.838;2024-02-16T11:49:21;15.00;99.90
37702;DHT22;23548;51.196;6.838;2024-02-16T11:51:47;15.00;99.90
37702;DHT22;23548;51.196;6.838;2024-02-16T11:54:13;15.00;99.90
37702;DHT22;23548;51.196;6.838;2024-02-16T11:56:43;15.00;99.90
37702;DHT22;23548;51.196;6.838;2024-02-16T11:59:15;14.90;99.90
37702;DHT22;23548;51.196;6.838;2024-02-16T12:01:51;14.90;99.90
37702;DHT22;23548;51.196;6.838;2024-02-16T12:04:25;14.90;99.90
37702;DHT22;23548;51.196;6.838;2024-02-16T12:07:01;14.90;99.90
37702;DHT22;23548;51.196;6.838;2024-02-16T12:09:27;14.90;99.90
37702;DHT22;23548;51.196;6.838;2024-02-16T12:11:54;14.80;99.90
37702;DHT22;23548;51.196;6.838;2024-02-16T12:14:24;14.80;99.90
37702;DHT22;23548;51.196;6.838;2024-02-16T12:16:51;14.70;99.90
37702;DHT22;23548;51.196;6.838;2024-02-16T12:19:20;14.70;99.90
37702;DHT22;23548;51.196;6.838;2024-02-16T12:21:54;14.70;99.90
37702;DHT22;23548;51.196;6.838;2024-02-16T12:24:21;14.80;99.90
37702;DHT22;23548;51.196;6.838;2024-02-16T12:26:47;14.90;99.90
37702;DHT22;23548;51.196;6.838;2024-02-16T12:29:12;15.10;99.90
37702;DHT22;23548;51.196;6.838;2024-02-16T12:31:45;15.20;99.90
37702;DHT22;23548;51.196;6.838;2024-02-16T12:34:11;15.20;99.90
37702;DHT22;23548;51.196;6.838;2024-02-16T12:36:41;15.30;99.90
37702;DHT22;23548;51.196;6.838;2024-02-16T12:39:07;15.30;99.90
37702;DHT22;23548;51.196;6.838;2024-02-16T12:41:36;15.30;99.90
37702;DHT22;23548;51.196;6.838;2024-02-16T12:44:04;15.30;99.90
37702;DHT22;23548;51.196;6.838;2024-02-16T12:46:31;15.30;99.90
37702;DHT22;23548;51.196;6.838;2024-02-16T12:48:56;15.10;99.90
37702;DHT22;23548;51.196;6.838;2024-02-16T12:51:22;15.00;99.90
37702;DHT22;23548;51.196;6.838;2024-02-16T12:53:49;14.90;99.90
37702;DHT22;23548;51.196;6.838;2024-02-16T12:56:15;14.90;99.90
37702;DHT22;23548;51.196;6.838;2024-02-16T12:58:41;14.80;99.90
37702;DHT22;23548;51.196;6.838;2024-02-16T13:01:06;14.80;99.90
37702;DHT22;23548;51.196;6.838;2024-02-16T13:03:36;14.70;99.90
37702;DHT22;23548;51.196;6.838;2024-02-16T13:06:03;14.80;99.90
37702;DHT22;23548;51.196;6.838;2024-02-16T13:08:30;14.80;99.90
37702;DHT22;23548;51.196;6.838;2024-02-16T13:10:58;14.80;99.90
37702;DHT22;23548;51.196;6.838;2024-02-16T13:13:24;14.80;99.90
37702;DHT22;23548;51.196;6.838;2024-02-16T13:15:50;14.90;99.90
37702;DHT22;23548;51.196;6.838;2024-02-16T13:18:17;14.90;99.90
37702;DHT22;23548;51.196;6.838;2024-02-16T13:20:43;15.00;99.90
37702;DHT22;23548;51.196;6.838;2024-02-16T13:23:09;15.00;99.90
37702;DHT22;23548;51.196;6.838;2024-02-16T13:25:36;14.90;99.90
37702;DHT22;23548;51.196;6.838;2024-02-16T13:28:02;14.90;99.90
37702;DHT22;23548;51.196;6.838;2024-02-16T13:30:28;14.90;99.90
37702;DHT22;23548;51.196;6.838;2024-02-16T13:32:54;14.80;99.90
37702;DHT22;23548;51.196;6.838;2024-02-16T13:35:20;14.80;99.90
37702;DHT22;23548;51.196;6.838;2024-02-16T13:37:46;14.80;99.90
37702;DHT22;23548;51.196;6.838;2024-02-16T13:40:12;14.70;99.90
37702;DHT22;23548;51.196;6.838;2024-02-16T13:42:39;14.60;99.90
37702;DHT22;23548;51.196;6.838;2024-02-16T13:45:06;14.60;99.90
37702;DHT22;23548;51.196;6.838;2024-02-16T13:47:32;14.70;99.90
37702;DHT22;23548;51.196;6.838;2024-02-16T13:49:57;14.60;99.90
37702;DHT22;23548;51.196;6.838;2024-02-16T13:52:25;14.60;99.90
37702;DHT22;23548;51.196;6.838;2024-02-16T13:54:51;14.60;99.90
37702;DHT22;23548;51.196;6.838;2024-02-16T13:57:17;14.70;99.90
37702;DHT22;23548;51.196;6.838;2024-02-16T13:59:43;14.50;99.90
37702;DHT22;23548;51.196;6.838;2024-02-16T14:02:10;14.50;99.90
37702;DHT22;23548;51.196;6.838;2024-02-16T14:04:36;14.40;99.90
37702;DHT22;23548;51.196;6.838;2024-02-16T14:07:02;14.40;99.90
37702;DHT22;23548;51.196;6.838;2024-02-16T14:09:28;14.40;99.90
37702;DHT22;23548;51.196;6.838;2024-02-16T14:11:54;14.40;99.90
37702;DHT22;23548;51.196;6.838;2024-02-16T14:14:21;14.30;99.90
37702;DHT22;23548;51.196;6.838;2024-02-16T14:16:47;14.20;99.90
37702;DHT22;23548;51.196;6.838;2024-02-16T14:19:14;14.00;99.90
37702;DHT22;23548;51.196;6.838;2024-02-16T14:21:39;14.00;99.90
37702;DHT22;23548;51.196;6.838;2024-02-16T14:24:05;13.90;99.90
37702;DHT22;23548;51.196;6.838;2024-02-16T14:26:32;13.90;99.90
37702;DHT22;23548;51.196;6.838;2024-02-16T14:28:58;13.90;99.90
37702;DHT22;23548;51.196;6.838;2024-02-16T14:31:24;13.90;99.90
37702;DHT22;23548;51.196;6.838;2024-02-16T14:33:49;13.80;99.90
37702;DHT22;23548;51.196;6.838;2024-02-16T14:36:15;13.80;99.90
37702;DHT22;23548;51.196;6.838;2024-02-16T14:38:41;13.90;99.90
37702;DHT22;23548;51.196;6.838;2024-02-16T14:41:07;13.80;99.90
37702;DHT22;23548;51.196;6.838;2024-02-16T14:43:33;13.80;99.90
37702;DHT22;23548;51.196;6.838;2024-02-16T14:46:00;13.80;99.90
37702;DHT22;23548;51.196;6.838;2024-02-16T14:48:25;13.90;99.90
37702;DHT22;23548;51.196;6.838;2024-02-16T14:50:52;13.80;99.90
37702;DHT22;23548;51.196;6.838;2024-02-16T14:53:21;13.80;99.90
37702;DHT22;23548;51.196;6.838;2024-02-16T14:55:47;13.80;99.90
37702;DHT22;23548;51.196;6.838;2024-02-16T14:58:13;13.90;99.90
37702;DHT22;23548;51.196;6.838;2024-02-16T15:00:39;13.90;99.90
37702;DHT22;23548;51.196;6.838;2024-02-16T15:03:05;13.90;99.90
37702;DHT22;23548;51.196;6.838;2024-02-16T15:05:31;13.90;99.90
37702;DHT22;23548;51.196;6.838;2024-02-16T15:07:56;13.90;99.90
37702;DHT22;23548;51.196;6.838;2024-02-16T15:10:22;13.90;99.90
37702;DHT22;23548;51.196;6.838;2024-02-16T15:12:49;13.90;99.90
37702;DHT22;23548;51.196;6.838;2024-02-16T15:15:15;13.90;99.90
37702;DHT22;23548;51.196;6.838;2024-02-16T15:17:40;13.90;99.90
37702;DHT22;23548;51.196;6.838;2024-02-16T15:20:07;13.90;99.90
37702;DHT22;23548;51.196;6.838;2024-02-16T15:22:33;13.90;99.90
37702;DHT22;23548;51.196;6.838;2024-02-16T15:24:59;13.80;99.90
37702;DHT22;23548;51.196;6.838;2024-02-16T15:27:25;13.70;99.90
37702;DHT22;23548;51.196;6.838;2024-02-16T15:29:51;13.70;99.90